Airfield :







YOU CAN JOIN US ON...

 
LOGIN :

Register | Disclaimer

   EN    FR    IT 

 









Legend :    VFR   Marginal VFR   IFR   Intensive IFR   Very Intensive IFR
Visi :
Ceiling :
>= 8 km
>= 3000ft
5 to 8 km
1000 to 3000 ft
1500m to 5 km
500 to 1000 ft
800 to 1500m
200 to 500 ft
< 800m
< 200 ft
Symbols :   Thunderstorms  Fog  Heavy snow  Heavy precipitations  Wind > 20 kt






- Airport Elevation : 124 ft
- IATA code : YGV


CYGV - Havre St Pierre

CURRENT METAR :
  • 281200Z AUTO 28015KT 9SM CLR M04/M11 A2976 RMK SLP083

EXPIRED METARs :
  • 281100Z AUTO 29012G17KT 9SM CLR M05/M11 A2973 RMK SLP072
  • 281000Z AUTO 29013G18KT 9SM BKN230 M05/M11 A2969 RMK SLP059

TAF TAF CYGV
Valid from the 28 at 08:00 until the 28 at 20:00 UTC


280740Z 2808/2820 30012KT P6SM OVC130
FM281000 30012KT P6SM SKC
BECMG 2817/2819 27012KT RMK FCST BASED ON AUTO OBS. NXT FCST BY 281400Z



MET'MAP, your aeronautical weather chart ! - Copyright ORBIFLY December 2007 - Disclaimer

ORBIFLY MET'MAP TEAM :

Programming & Development : Alexandra Zaïnal
Concept & original design : Baudouin d'Aumeries
Assistance for programming : Marc-Olivier Méhu
Technical & hardware support : Manuel Goepfert

Contact : metmap@orbifly.com




SOURCES & CREDITS :

   NOAA